Time;durP1;ratioP1;P1;durP2;ratioP2;P2;SDS_P1;SDS_P2;PMS_P1;PMS_P2;Temp;Humidity;BMP_temperature;BMP_pressure;BME280_temperature;BME280_humidity;BME280_pressure;Samples;Min_cycle;Max_cycle;Signal;HPM_P1;HPM_P2
2021/12/04 00:02:03;;;;;;;3.75;1.45;;;22.50;91.90;;;;;;5072045;28;20025;-58
2021/12/04 00:04:34;;;;;;;2.33;1.50;;;22.50;91.80;;;;;;5072121;28;20029;-58
2021/12/04 00:07:03;;;;;;;3.95;1.63;;;22.50;91.80;;;;;;5072200;28;20028;-59
2021/12/04 00:09:31;;;;;;;3.22;1.15;;;22.50;91.80;;;;;;5071814;28;20116;-61
2021/12/04 00:12:01;;;;;;;5.78;1.50;;;22.60;91.70;;;;;;5070327;28;20032;-57
2021/12/04 00:14:32;;;;;;;4.63;1.45;;;22.50;91.60;;;;;;5071670;28;20169;-60
2021/12/04 00:17:00;;;;;;;3.03;1.40;;;22.60;91.70;;;;;;5071662;28;20024;-57
2021/12/04 00:19:28;;;;;;;3.85;1.50;;;22.60;91.70;;;;;;5071387;28;20036;-58
2021/12/04 00:21:56;;;;;;;5.05;1.75;;;22.60;91.70;;;;;;5071756;28;20103;-57
2021/12/04 00:24:25;;;;;;;3.17;1.40;;;22.60;91.60;;;;;;5070684;28;20055;-55
2021/12/04 00:26:53;;;;;;;4.28;1.38;;;22.60;91.60;;;;;;5071436;28;20078;-60
2021/12/04 00:29:22;;;;;;;3.58;1.58;;;22.60;91.60;;;;;;5071276;28;20028;-60
2021/12/04 00:31:54;;;;;;;6.07;1.48;;;22.60;91.60;;;;;;5069265;28;20035;-58
2021/12/04 00:34:23;;;;;;;4.47;1.45;;;22.70;91.60;;;;;;5071488;28;20032;-59
2021/12/04 00:50:36;;;;;;;3.92;1.15;;;22.70;91.60;;;;;;5075369;28;20023;-54
2021/12/04 00:53:04;;;;;;;3.10;1.40;;;22.70;91.60;;;;;;5075032;28;20108;-53
2021/12/04 00:55:31;;;;;;;5.47;1.58;;;22.70;91.60;;;;;;5073862;28;20048;-57
2021/12/04 00:57:59;;;;;;;6.80;1.77;;;22.70;91.60;;;;;;5074551;28;20043;-58
2021/12/04 01:00:26;;;;;;;5.90;2.33;;;22.70;91.50;;;;;;5074999;28;20027;-58
2021/12/04 01:02:53;;;;;;;4.47;1.73;;;22.70;91.50;;;;;;5074859;28;20562;-57
2021/12/04 01:05:21;;;;;;;5.40;1.70;;;22.80;91.50;;;;;;5074979;28;20054;-61
2021/12/04 01:07:48;;;;;;;6.18;1.95;;;22.80;91.60;;;;;;5074880;28;20107;-55
2021/12/04 01:10:16;;;;;;;4.95;1.23;;;22.80;91.50;;;;;;5074669;28;20470;-59
2021/12/04 01:12:43;;;;;;;5.18;1.90;;;22.80;91.40;;;;;;5074813;28;20028;-57
2021/12/04 01:15:11;;;;;;;3.83;1.63;;;22.90;91.30;;;;;;5074893;28;20428;-53
2021/12/04 01:17:38;;;;;;;3.38;1.58;;;22.90;91.30;;;;;;5073321;28;20464;-59
2021/12/04 01:20:06;;;;;;;2.60;1.27;;;22.90;91.00;;;;;;5074137;28;20070;-60
2021/12/04 01:22:33;;;;;;;7.80;1.80;;;22.90;91.30;;;;;;5073367;28;20074;-59
2021/12/04 01:25:03;;;;;;;6.30;1.70;;;22.90;91.10;;;;;;5074711;28;20395;-59
2021/12/04 01:27:30;;;;;;;6.25;1.60;;;22.90;91.20;;;;;;5074866;28;20421;-58
2021/12/04 01:29:58;;;;;;;4.50;1.67;;;22.90;91.00;;;;;;5074557;28;20024;-58
2021/12/04 01:32:25;;;;;;;5.57;1.70;;;22.90;91.40;;;;;;5074741;28;20382;-56
2021/12/04 01:34:54;;;;;;;4.53;1.42;;;22.90;90.90;;;;;;5074824;28;20051;-60
2021/12/04 01:37:22;;;;;;;3.75;1.67;;;22.90;91.20;;;;;;5074668;28;20024;-60
2021/12/04 01:39:50;;;;;;;3.90;1.45;;;22.90;91.10;;;;;;5074507;28;20050;-58
2021/12/04 01:42:21;;;;;;;6.25;1.75;;;22.90;91.10;;;;;;5074261;28;20108;-59
2021/12/04 01:44:49;;;;;;;4.25;1.65;;;22.90;91.20;;;;;;5073764;28;20107;-55
2021/12/04 01:47:21;;;;;;;5.25;1.63;;;22.90;91.10;;;;;;5072712;28;20031;-59
2021/12/04 01:49:49;;;;;;;;;;;22.90;91.10;;;;;;5074388;28;20025;-61
2021/12/04 01:52:20;;;;;;;4.65;2.10;;;23.00;91.20;;;;;;5071609;28;20282;-55
2021/12/04 01:54:50;;;;;;;4.35;2.03;;;23.00;91.10;;;;;;5074129;28;20048;-57
2021/12/04 01:57:20;;;;;;;4.60;1.70;;;23.00;91.10;;;;;;5073728;28;20028;-58
2021/12/04 01:59:48;;;;;;;3.90;1.35;;;23.00;90.90;;;;;;5073277;28;20115;-60
2021/12/04 02:02:16;;;;;;;3.90;1.60;;;23.00;91.00;;;;;;5073245;28;20100;-59
2021/12/04 02:04:44;;;;;;;4.70;1.98;;;23.00;91.00;;;;;;5073737;28;20028;-55
2021/12/04 02:07:12;;;;;;;6.10;1.85;;;23.00;91.00;;;;;;5072688;28;20025;-59
2021/12/04 02:09:40;;;;;;;5.60;1.70;;;23.00;90.90;;;;;;5073489;28;20111;-56
2021/12/04 02:12:09;;;;;;;5.90;1.92;;;23.00;90.80;;;;;;5073423;28;20031;-57
2021/12/04 02:14:39;;;;;;;4.40;1.65;;;23.00;90.80;;;;;;5073638;28;20113;-59
2021/12/04 02:17:07;;;;;;;4.65;1.60;;;23.00;90.60;;;;;;5074060;28;20025;-58
2021/12/04 02:19:35;;;;;;;3.40;1.30;;;23.10;90.80;;;;;;5073528;28;20035;-58
2021/12/04 02:22:02;;;;;;;6.18;1.95;;;23.10;90.80;;;;;;5072858;28;20031;-58
2021/12/04 02:24:30;;;;;;;4.55;1.50;;;23.00;90.80;;;;;;5072156;28;20549;-60
2021/12/04 02:26:57;;;;;;;4.65;1.67;;;23.10;90.40;;;;;;5072984;28;20062;-59
2021/12/04 02:29:25;;;;;;;5.05;1.80;;;23.10;90.50;;;;;;5071917;28;20028;-58
2021/12/04 02:31:55;;;;;;;4.63;2.03;;;23.10;90.30;;;;;;5073124;28;20017;-55
2021/12/04 02:34:29;;;;;;;4.50;1.67;;;23.10;90.30;;;;;;5056034;28;20517;-58
2021/12/04 02:36:58;;;;;;;4.00;1.52;;;23.20;90.50;;;;;;5073068;28;20024;-57
2021/12/04 02:39:33;;;;;;;3.92;1.60;;;23.20;90.40;;;;;;5071869;28;20102;-59
2021/12/04 02:42:02;;;;;;;6.57;2.22;;;23.20;90.30;;;;;;5072732;28;20024;-57
2021/12/04 02:44:36;;;;;;;5.15;1.67;;;23.30;90.10;;;;;;5072171;28;20021;-59
2021/12/04 02:47:05;;;;;;;4.72;1.65;;;23.30;90.00;;;;;;5071116;28;20035;-54
2021/12/04 02:49:32;;;;;;;5.25;1.85;;;23.40;89.40;;;;;;5072683;28;20051;-58
2021/12/04 02:52:08;;;;;;;3.63;1.30;;;23.40;90.00;;;;;;5054994;28;20029;-58
2021/12/04 02:54:36;;;;;;;6.45;1.73;;;23.50;90.10;;;;;;5072485;28;20688;-56
2021/12/04 02:57:09;;;;;;;5.35;2.03;;;23.50;89.10;;;;;;5072395;28;20024;-54
2021/12/04 02:59:39;;;;;;;5.80;1.95;;;23.60;89.30;;;;;;5072382;28;20367;-55
2021/12/04 03:02:22;;;;;;;5.07;1.58;;;23.60;88.70;;;;;;5072289;28;20033;-55
2021/12/04 03:05:02;;;;;;;5.30;1.48;;;23.70;89.50;;;;;;5072930;28;20021;-57
2021/12/04 03:07:30;;;;;;;3.83;1.58;;;23.70;88.70;;;;;;5073058;28;20460;-57
2021/12/04 03:09:57;;;;;;;2.55;1.15;;;23.70;88.60;;;;;;5071175;28;20016;-59
2021/12/04 03:12:26;;;;;;;2.75;1.60;;;23.80;88.20;;;;;;5071958;28;20036;-60
2021/12/04 03:14:55;;;;;;;3.63;1.48;;;23.80;87.50;;;;;;5072548;28;20111;-58
2021/12/04 03:17:24;;;;;;;3.50;1.25;;;23.80;87.70;;;;;;5072647;28;20024;-56
2021/12/04 03:19:53;;;;;;;5.45;1.83;;;23.80;88.20;;;;;;5072825;28;20025;-58
2021/12/04 03:22:23;;;;;;;4.20;1.58;;;23.70;88.40;;;;;;5072681;28;20052;-59
2021/12/04 03:24:52;;;;;;;4.20;1.70;;;23.70;87.30;;;;;;5072516;28;20021;-55
2021/12/04 03:27:20;;;;;;;3.42;1.35;;;23.70;89.10;;;;;;5072439;28;20024;-57
2021/12/04 03:29:49;;;;;;;5.35;1.55;;;23.70;89.00;;;;;;5069438;28;20103;-59
2021/12/04 03:43:02;;;;;;;5.80;2.00;;;23.70;87.50;;;;;;5072343;28;20021;-57
2021/12/04 03:45:31;;;;;;;9.90;2.35;;;23.70;86.30;;;;;;5072320;28;20382;-59
2021/12/04 03:48:06;;;;;;;7.57;1.80;;;23.70;83.70;;;;;;5072224;28;20435;-56
2021/12/04 03:50:34;;;;;;;4.20;1.73;;;23.60;83.00;;;;;;5071909;28;20085;-57
2021/12/04 03:53:02;;;;;;;6.85;1.90;;;23.60;81.70;;;;;;5070968;28;20063;-55
2021/12/04 03:55:29;;;;;;;6.55;1.65;;;23.50;79.50;;;;;;5072199;28;20044;-58
2021/12/04 03:57:57;;;;;;;10.23;1.98;;;23.50;80.80;;;;;;5071284;28;20082;-57
2021/12/04 04:00:28;;;;;;;9.98;2.22;;;23.50;80.20;;;;;;5071799;28;20025;-59
2021/12/04 04:02:58;;;;;;;11.30;1.98;;;23.50;79.70;;;;;;5054841;28;20062;-57
2021/12/04 04:05:27;;;;;;;8.00;1.83;;;23.50;80.30;;;;;;5072777;28;20489;-56
2021/12/04 04:07:55;;;;;;;6.13;1.98;;;23.50;80.90;;;;;;5072056;28;20375;-60
2021/12/04 04:10:23;;;;;;;7.28;2.28;;;23.50;80.80;;;;;;5072192;28;20065;-53
2021/12/04 04:12:50;;;;;;;7.57;2.15;;;23.50;82.10;;;;;;5072202;28;20039;-58
2021/12/04 04:15:18;;;;;;;7.55;1.75;;;23.50;81.70;;;;;;5071961;28;20032;-55
2021/12/04 04:17:45;;;;;;;12.48;2.05;;;23.50;81.60;;;;;;5071837;28;20044;-57
2021/12/04 04:20:17;;;;;;;10.50;2.90;;;23.50;80.80;;;;;;5071836;28;20029;-56
2021/12/04 04:22:47;;;;;;;7.38;2.08;;;23.50;81.50;;;;;;5072540;28;20074;-57
2021/12/04 04:25:19;;;;;;;14.57;2.63;;;23.40;81.40;;;;;;5075641;28;20016;-57
2021/12/04 04:27:46;;;;;;;13.48;2.40;;;23.50;82.10;;;;;;5076011;28;20487;-57
2021/12/04 04:30:16;;;;;;;9.02;2.63;;;23.40;82.90;;;;;;5074209;28;20039;-55
2021/12/04 04:32:46;;;;;;;7.72;2.42;;;23.40;82.90;;;;;;5076204;28;20119;-56
2021/12/04 04:35:21;;;;;;;8.43;2.35;;;23.40;83.00;;;;;;5075394;28;20115;-56
2021/12/04 04:38:01;;;;;;;8.50;2.22;;;23.30;84.30;;;;;;5074270;28;20020;-57
2021/12/04 05:13:14;;;;;;;7.65;3.17;;;23.10;86.20;;;;;;5075025;28;20126;-55
2021/12/04 05:21:04;;;;;;;13.82;3.70;;;23.20;86.10;;;;;;5075275;28;20052;-59
2021/12/04 05:23:36;;;;;;;17.08;2.97;;;23.10;85.80;;;;;;5074963;28;20383;-58
2021/12/04 05:26:04;;;;;;;;;;;23.10;86.60;;;;;;5075132;28;20477;-56
2021/12/04 05:28:32;;;;;;;13.93;4.05;;;23.10;87.60;;;;;;5074785;28;19915;-56
2021/12/04 05:30:59;;;;;;;16.92;3.22;;;23.20;88.10;;;;;;5075018;28;20024;-57
2021/12/04 05:33:27;;;;;;;20.40;5.32;;;23.20;87.10;;;;;;5074874;28;20060;-53
2021/12/04 05:35:55;;;;;;;19.40;4.30;;;23.20;86.30;;;;;;5074171;28;20071;-57
2021/12/04 05:38:23;;;;;;;22.25;4.53;;;23.20;87.50;;;;;;5073302;28;20091;-54
2021/12/04 05:40:51;;;;;;;22.17;4.25;;;23.20;87.00;;;;;;5074326;28;20017;-56
2021/12/04 05:43:22;;;;;;;20.17;4.28;;;23.10;87.50;;;;;;5074922;28;20037;-51
2021/12/04 05:45:56;;;;;;;14.27;4.03;;;23.00;88.00;;;;;;5073703;28;20040;-54
2021/12/04 05:53:58;;;;;;;17.90;4.68;;;23.00;88.60;;;;;;5073237;28;20035;-52
2021/12/04 05:56:27;;;;;;;11.13;3.38;;;23.00;89.30;;;;;;5074256;28;20032;-54
2021/12/04 05:58:54;;;;;;;19.25;3.80;;;23.10;89.00;;;;;;5073712;28;20104;-55
2021/12/04 06:01:23;;;;;;;25.73;4.45;;;23.10;89.60;;;;;;5072927;28;20119;-53
2021/12/04 06:03:51;;;;;;;20.42;3.78;;;23.20;88.60;;;;;;5074116;28;20024;-53
2021/12/04 06:06:19;;;;;;;17.20;5.07;;;23.20;88.70;;;;;;5074187;28;20437;-54
2021/12/04 06:08:47;;;;;;;14.95;3.83;;;23.10;87.60;;;;;;5073932;28;20021;-54
2021/12/04 06:11:16;;;;;;;16.23;4.90;;;23.10;89.10;;;;;;5073717;28;20048;-54
2021/12/04 06:13:43;;;;;;;15.77;4.05;;;23.10;87.30;;;;;;5074114;28;20090;-57
2021/12/04 06:16:11;;;;;;;14.35;4.43;;;23.10;87.70;;;;;;5073557;28;20032;-55
2021/12/04 06:18:39;;;;;;;12.27;3.20;;;23.00;88.60;;;;;;5074215;28;20029;-54
2021/12/04 06:23:52;;;;;;;12.20;4.47;;;23.00;87.30;;;;;;5074067;28;20432;-56
2021/12/04 06:26:19;;;;;;;15.35;4.78;;;23.00;88.90;;;;;;5072970;28;20502;-54
2021/12/04 06:28:48;;;;;;;20.45;4.00;;;23.00;88.80;;;;;;5072655;28;20035;-52
2021/12/04 06:31:15;;;;;;;14.40;4.72;;;23.00;89.10;;;;;;5069159;28;20502;-60
2021/12/04 06:33:43;;;;;;;15.93;4.28;;;23.00;88.80;;;;;;5073469;28;20037;-54
2021/12/04 06:36:11;;;;;;;17.30;4.57;;;23.00;88.50;;;;;;5073813;28;20405;-52
2021/12/04 06:38:38;;;;;;;17.10;5.13;;;23.00;87.80;;;;;;5073528;28;20496;-54
2021/12/04 06:41:06;;;;;;;18.35;5.38;;;22.90;87.10;;;;;;5071690;28;20048;-57
2021/12/04 06:43:36;;;;;;;17.80;4.45;;;22.90;87.60;;;;;;5073012;28;20115;-53
2021/12/04 06:46:05;;;;;;;16.15;4.88;;;22.90;87.60;;;;;;5072650;28;20387;-53
2021/12/04 06:48:39;;;;;;;18.60;4.85;;;22.90;86.90;;;;;;5072994;28;20037;-54
2021/12/04 06:51:26;;;;;;;25.75;6.55;;;22.70;87.30;;;;;;5073073;28;20092;-54
2021/12/04 06:56:30;;;;;;;17.23;4.40;;;22.60;88.00;;;;;;5073345;28;20016;-56
2021/12/04 06:59:00;;;;;;;13.43;4.63;;;22.60;88.00;;;;;;5073321;28;20025;-54
2021/12/04 07:01:27;;;;;;;16.27;4.63;;;22.60;88.30;;;;;;5072344;28;20061;-55
2021/12/04 07:03:55;;;;;;;13.85;4.72;;;22.50;87.70;;;;;;5072669;28;20024;-61
2021/12/04 07:06:22;;;;;;;13.90;4.97;;;22.50;89.30;;;;;;5073035;28;20024;-59
2021/12/04 07:08:49;;;;;;;11.45;4.63;;;22.40;89.40;;;;;;5073014;28;20031;-61
2021/12/04 07:11:20;;;;;;;12.27;4.50;;;22.50;89.40;;;;;;5072356;28;20052;-58
2021/12/04 07:13:47;;;;;;;10.27;4.45;;;22.50;89.20;;;;;;5071227;28;20028;-54
2021/12/04 07:16:17;;;;;;;8.90;3.67;;;22.60;89.30;;;;;;5072270;28;20024;-60
2021/12/04 07:18:45;;;;;;;10.93;3.70;;;22.60;89.10;;;;;;5072530;28;20032;-60
2021/12/04 07:21:13;;;;;;;7.00;3.45;;;22.70;88.90;;;;;;5071363;28;20452;-56
2021/12/04 07:23:41;;;;;;;9.73;3.83;;;22.70;88.60;;;;;;5065370;28;20522;-55
2021/12/04 07:26:09;;;;;;;17.25;5.03;;;22.70;88.60;;;;;;5068021;28;20055;-57
2021/12/04 07:28:36;;;;;;;15.88;4.13;;;22.70;89.60;;;;;;5067878;28;20063;-56
2021/12/04 07:31:08;;;;;;;10.05;3.85;;;22.70;89.40;;;;;;5067499;28;20475;-52
2021/12/04 07:33:36;;;;;;;10.83;4.17;;;22.80;89.20;;;;;;5070497;28;20036;-47
2021/12/04 07:36:22;;;;;;;7.88;3.67;;;22.80;89.30;;;;;;5070232;28;20107;-52
2021/12/04 07:38:56;;;;;;;10.93;3.95;;;22.80;89.40;;;;;;5070750;28;20132;-49
2021/12/04 07:41:24;;;;;;;10.65;4.00;;;22.80;89.00;;;;;;5061952;28;20036;-52
2021/12/04 07:43:52;;;;;;;9.48;3.70;;;22.80;88.90;;;;;;5069788;28;20028;-53
2021/12/04 07:46:20;;;;;;;10.10;4.00;;;22.80;88.80;;;;;;5070552;28;20021;-55
2021/12/04 07:48:48;;;;;;;15.00;4.53;;;22.80;88.90;;;;;;5070427;28;20021;-54
2021/12/04 07:51:19;;;;;;;9.57;4.03;;;22.80;88.70;;;;;;5066567;28;20601;-51
2021/12/04 07:53:48;;;;;;;10.57;3.65;;;22.80;88.70;;;;;;5070711;28;20059;-47
2021/12/04 07:56:25;;;;;;;9.27;4.28;;;22.70;88.80;;;;;;5065849;28;20108;-50
2021/12/04 07:58:54;;;;;;;11.95;4.43;;;22.80;88.80;;;;;;5072504;28;20052;-53
2021/12/04 08:01:22;;;;;;;12.13;4.30;;;22.80;88.60;;;;;;5076106;28;20025;-53
2021/12/04 08:03:50;;;;;;;9.15;3.75;;;22.80;88.60;;;;;;5067671;28;20033;-51
2021/12/04 08:06:17;;;;;;;7.82;4.05;;;22.80;88.80;;;;;;5069818;28;20028;-54
2021/12/04 08:08:45;;;;;;;8.27;3.55;;;22.70;88.60;;;;;;5072872;28;20037;-54
2021/12/04 08:11:12;;;;;;;8.88;3.85;;;22.70;88.60;;;;;;5073266;28;20103;-58
2021/12/04 08:13:39;;;;;;;9.15;3.72;;;22.80;88.70;;;;;;5070154;28;20041;-57
2021/12/04 08:16:07;;;;;;;7.97;4.50;;;22.70;88.70;;;;;;5073032;28;20020;-52
2021/12/04 08:18:34;;;;;;;9.18;4.65;;;22.70;88.60;;;;;;5073275;28;20111;-54
2021/12/04 08:21:02;;;;;;;12.30;5.25;;;22.70;88.60;;;;;;5073195;28;20420;-59
2021/12/04 08:23:30;;;;;;;9.23;4.07;;;22.60;88.60;;;;;;5069620;28;20151;-53
2021/12/04 08:25:58;;;;;;;15.00;4.55;;;22.60;88.50;;;;;;5072493;28;20047;-55
2021/12/04 08:28:25;;;;;;;12.25;4.28;;;22.60;88.70;;;;;;5073964;28;20023;-58
2021/12/04 08:30:53;;;;;;;8.15;3.92;;;22.60;88.70;;;;;;5069526;28;20052;-54
2021/12/04 08:33:20;;;;;;;9.65;4.53;;;22.60;88.50;;;;;;5070763;28;20507;-51
2021/12/04 08:35:48;;;;;;;7.50;4.20;;;22.60;89.30;;;;;;5071376;28;20677;-53
2021/12/04 08:38:16;;;;;;;8.57;4.57;;;22.60;88.60;;;;;;5073012;28;20048;-56
2021/12/04 08:40:44;;;;;;;9.25;4.53;;;22.60;88.50;;;;;;5072806;28;20027;-53
2021/12/04 08:43:13;;;;;;;11.45;4.47;;;22.60;88.50;;;;;;5072227;28;20026;-52
2021/12/04 08:45:42;;;;;;;9.35;4.28;;;22.60;88.40;;;;;;5069043;28;20024;-55
2021/12/04 08:48:10;;;;;;;10.50;4.63;;;22.60;88.40;;;;;;5073328;28;20154;-54
2021/12/04 08:50:38;;;;;;;8.40;4.63;;;22.60;88.40;;;;;;5070166;28;20025;-56
2021/12/04 08:53:08;;;;;;;8.80;4.40;;;22.60;88.30;;;;;;5070065;28;20055;-52
2021/12/04 08:55:38;;;;;;;11.25;4.35;;;22.60;88.80;;;;;;5067938;28;20564;-59
2021/12/04 08:58:07;;;;;;;8.88;4.20;;;22.50;88.20;;;;;;5070704;28;20037;-50
2021/12/04 09:00:51;;;;;;;7.82;4.13;;;22.50;88.30;;;;;;5068799;28;20521;-54
2021/12/04 09:03:27;;;;;;;8.18;4.22;;;22.50;88.10;;;;;;5068653;28;20027;-54
2021/12/04 09:05:55;;;;;;;6.88;4.10;;;22.50;88.20;;;;;;5072520;28;20025;-57
2021/12/04 09:08:25;;;;;;;8.35;4.47;;;22.50;88.30;;;;;;5068683;28;20064;-59
2021/12/04 09:10:55;;;;;;;11.75;5.45;;;22.50;88.10;;;;;;5069253;28;20477;-55
2021/12/04 09:13:24;;;;;;;10.40;5.00;;;22.50;88.10;;;;;;5069936;28;20043;-53
2021/12/04 09:15:51;;;;;;;12.75;4.68;;;22.50;88.10;;;;;;5070109;28;20020;-57
2021/12/04 09:18:19;;;;;;;7.32;4.45;;;22.50;88.00;;;;;;5072183;28;20038;-51
2021/12/04 09:20:49;;;;;;;8.77;5.18;;;22.50;88.00;;;;;;5070455;28;20482;-56
2021/12/04 09:23:19;;;;;;;9.70;4.65;;;22.50;87.90;;;;;;5071044;28;20406;-51
2021/12/04 09:25:51;;;;;;;8.30;4.07;;;22.50;87.90;;;;;;5071042;28;20023;-49
2021/12/04 09:31:21;;;;;;;8.15;4.45;;;22.50;88.00;;;;;;5072662;28;20051;-54
2021/12/04 09:34:10;;;;;;;11.30;5.35;;;22.50;87.90;;;;;;5069142;28;20112;-52
2021/12/04 10:01:55;;;;;;;30.08;18.08;;;22.40;87.90;;;;;;5068697;28;20027;-56
2021/12/04 10:13:16;;;;;;;34.83;20.83;;;22.40;87.70;;;;;;5071727;28;20204;-55
2021/12/04 10:16:01;;;;;;;34.47;19.58;;;22.40;87.70;;;;;;5069292;28;20062;-55
2021/12/04 10:21:32;;;;;;;29.50;18.58;;;22.30;87.80;;;;;;5070580;28;20031;-54
2021/12/04 10:24:26;;;;;;;26.33;18.00;;;22.30;87.60;;;;;;5066669;28;20121;-57
2021/12/04 10:32:55;;;;;;;25.77;17.50;;;22.30;87.80;;;;;;5069664;28;20115;-55
2021/12/04 10:35:24;;;;;;;26.90;16.50;;;22.20;87.70;;;;;;5066042;28;20027;-52
2021/12/04 10:37:59;;;;;;;24.45;14.98;;;22.20;87.90;;;;;;5070851;28;20199;-57
2021/12/04 10:40:41;;;;;;;23.17;15.48;;;22.20;87.90;;;;;;5068556;28;20560;-57
2021/12/04 10:43:17;;;;;;;27.98;16.45;;;22.20;87.90;;;;;;5071105;28;20033;-54
2021/12/04 10:45:50;;;;;;;24.20;14.77;;;22.20;88.00;;;;;;5069696;28;20034;-56
2021/12/04 10:48:21;;;;;;;26.67;15.82;;;22.20;87.90;;;;;;5069805;28;20464;-55
2021/12/04 10:53:48;;;;;;;28.58;14.98;;;22.20;88.10;;;;;;5065834;28;20419;-54
2021/12/04 11:04:05;;;;;;;24.75;12.52;;;22.00;88.20;;;;;;5066347;28;20028;-50
2021/12/04 11:06:50;;;;;;;25.35;11.70;;;22.00;88.20;;;;;;5068056;28;20024;-52
2021/12/04 11:27:33;;;;;;;15.85;8.57;;;21.90;88.30;;;;;;5073096;28;20066;-57
2021/12/04 11:38:14;;;;;;;15.73;6.93;;;21.80;88.30;;;;;;5052595;28;20039;-57
2021/12/04 11:43:22;;;;;;;12.00;6.57;;;21.80;88.20;;;;;;5072543;28;20025;-56
2021/12/04 11:48:38;;;;;;;17.77;7.70;;;21.70;88.00;;;;;;5072783;28;20391;-53
2021/12/04 11:51:21;;;;;;;13.90;6.53;;;21.70;88.10;;;;;;5070926;28;20099;-56
2021/12/04 11:53:50;;;;;;;15.38;6.40;;;21.70;88.20;;;;;;5070568;28;20044;-51
2021/12/04 11:56:27;;;;;;;13.57;7.07;;;21.60;88.30;;;;;;5071579;28;20047;-57
2021/12/04 11:58:55;;;;;;;17.23;7.10;;;21.60;88.30;;;;;;5071089;28;20197;-59
2021/12/04 12:01:34;;;;;;;13.80;6.38;;;21.60;88.90;;;;;;5071245;28;20016;-64
2021/12/04 12:04:08;;;;;;;12.68;5.88;;;21.60;88.80;;;;;;5071248;28;20116;-56
2021/12/04 12:06:46;;;;;;;12.63;5.78;;;21.60;88.80;;;;;;5072439;28;20101;-59
2021/12/04 12:09:26;;;;;;;16.42;5.50;;;21.60;88.80;;;;;;5070716;28;20035;-57
2021/12/04 12:12:02;;;;;;;10.95;4.68;;;21.50;88.70;;;;;;5071428;28;20020;-57
2021/12/04 12:14:39;;;;;;;11.85;5.22;;;21.60;88.80;;;;;;5072287;28;20051;-57
2021/12/04 12:17:08;;;;;;;14.15;4.72;;;21.60;88.90;;;;;;5072577;28;20094;-58
2021/12/04 12:19:43;;;;;;;9.27;4.68;;;21.50;88.90;;;;;;5072408;28;20020;-55
2021/12/04 12:22:38;;;;;;;13.93;4.22;;;21.50;89.00;;;;;;5072319;28;20048;-57
2021/12/04 12:25:25;;;;;;;10.40;4.90;;;21.50;88.90;;;;;;5072261;28;20025;-54
2021/12/04 12:33:45;;;;;;;11.90;4.40;;;21.40;88.90;;;;;;5072178;28;20047;-51
2021/12/04 12:36:20;;;;;;;10.50;4.22;;;21.40;88.90;;;;;;5072156;28;20127;-56
2021/12/04 12:39:08;;;;;;;9.45;4.53;;;21.40;88.90;;;;;;5071675;28;20036;-50
2021/12/04 12:41:50;;;;;;;9.07;4.05;;;21.40;88.90;;;;;;5072064;28;20052;-56
2021/12/04 12:44:19;;;;;;;9.57;4.20;;;21.30;88.90;;;;;;5072704;28;20051;-57
2021/12/04 12:47:02;;;;;;;11.02;4.50;;;21.30;89.00;;;;;;5076000;28;20028;-56
2021/12/04 12:49:37;;;;;;;10.35;4.28;;;21.30;89.00;;;;;;5076100;28;20024;-56
2021/12/04 12:52:13;;;;;;;10.52;3.75;;;21.30;89.00;;;;;;5075362;28;20048;-57
2021/12/04 12:54:45;;;;;;;14.20;4.47;;;21.30;89.00;;;;;;5075513;28;20044;-57
2021/12/04 12:57:30;;;;;;;9.35;4.13;;;21.20;88.90;;;;;;5075721;28;20328;-52
2021/12/04 13:11:43;;;;;;;8.57;3.47;;;21.20;88.90;;;;;;5070628;28;20401;-56
2021/12/04 13:14:27;;;;;;;11.80;3.85;;;21.20;89.10;;;;;;5072705;28;20343;-53
2021/12/04 13:17:00;;;;;;;13.80;3.70;;;21.20;89.00;;;;;;5071530;28;20024;-55
2021/12/04 13:19:28;;;;;;;12.13;4.53;;;21.20;89.10;;;;;;5069615;28;20029;-53
2021/12/04 13:21:59;;;;;;;12.30;4.95;;;21.10;89.00;;;;;;5071949;28;20028;-46
2021/12/04 13:24:39;;;;;;;10.43;3.80;;;21.20;89.00;;;;;;5069044;28;20545;-52
2021/12/04 13:29:41;;;;;;;10.27;4.20;;;21.20;89.00;;;;;;5072576;28;20380;-57
2021/12/04 13:32:12;;;;;;;10.27;3.58;;;21.20;89.00;;;;;;5072069;28;20513;-53
2021/12/04 13:34:41;;;;;;;11.30;3.67;;;21.20;88.90;;;;;;5072284;28;20040;-51
2021/12/04 13:37:10;;;;;;;8.93;3.25;;;21.10;88.80;;;;;;5068280;28;20096;-52
2021/12/04 13:39:41;;;;;;;11.50;3.72;;;21.10;88.70;;;;;;5072339;28;20052;-55
2021/12/04 13:42:09;;;;;;;7.03;2.72;;;21.10;88.60;;;;;;5072881;28;20039;-52
2021/12/04 13:44:37;;;;;;;7.90;2.78;;;21.10;88.60;;;;;;5071902;28;20024;-56
2021/12/04 13:47:08;;;;;;;8.00;3.15;;;21.10;88.60;;;;;;5069452;28;20020;-52
2021/12/04 13:49:40;;;;;;;9.77;3.90;;;21.10;88.60;;;;;;5070924;28;20056;-52
2021/12/04 13:52:31;;;;;;;;;;;21.10;88.50;;;;;;5072310;28;20029;-50
2021/12/04 13:55:12;;;;;;;9.73;3.08;;;21.10;88.50;;;;;;5071847;28;19961;-50
2021/12/04 13:57:40;;;;;;;8.85;2.88;;;21.10;88.60;;;;;;5072070;28;20077;-54
2021/12/04 14:00:11;;;;;;;7.55;2.72;;;21.10;88.40;;;;;;5071891;28;20024;-53
2021/12/04 14:02:39;;;;;;;8.05;3.42;;;21.10;88.30;;;;;;5072173;28;20383;-56
2021/12/04 14:05:11;;;;;;;8.43;3.05;;;21.20;88.60;;;;;;5069780;28;20028;-57
2021/12/04 14:07:37;;;;;;;;;;;21.10;88.20;;;;;;5070359;28;20498;-52
2021/12/04 14:10:17;;;;;;;8.60;2.92;;;21.10;88.10;;;;;;5068776;28;20343;-54
2021/12/04 14:12:45;;;;;;;6.93;2.67;;;21.10;88.00;;;;;;5069096;28;20383;-53
2021/12/04 14:15:16;;;;;;;6.30;2.58;;;21.10;88.00;;;;;;5068120;28;20032;-53
2021/12/04 14:17:44;;;;;;;5.78;2.58;;;21.10;87.90;;;;;;5069538;28;20134;-49
2021/12/04 14:20:20;;;;;;;9.13;2.97;;;21.10;87.80;;;;;;5068598;28;20111;-54
2021/12/04 14:22:50;;;;;;;8.57;2.65;;;21.10;87.70;;;;;;5068860;28;20031;-55
2021/12/04 14:25:18;;;;;;;4.38;2.20;;;21.00;87.60;;;;;;5067871;28;20032;-56
2021/12/04 14:27:48;;;;;;;9.63;3.42;;;21.00;87.60;;;;;;5072037;28;20033;-54
2021/12/04 14:30:26;;;;;;;6.40;2.63;;;21.10;87.70;;;;;;5067717;28;20341;-55
2021/12/04 14:32:57;;;;;;;8.13;2.72;;;21.10;87.60;;;;;;5054310;28;20036;-54
2021/12/04 14:35:31;;;;;;;6.38;2.80;;;21.00;87.50;;;;;;5054138;28;20047;-55
2021/12/04 14:38:05;;;;;;;11.20;2.90;;;21.00;87.40;;;;;;5053878;28;20025;-56
2021/12/04 14:40:41;;;;;;;8.63;2.75;;;21.10;87.40;;;;;;5052900;28;20029;-54
2021/12/04 14:43:12;;;;;;;6.88;2.72;;;21.00;87.30;;;;;;5054206;28;20096;-55
2021/12/04 14:45:43;;;;;;;7.82;2.58;;;21.00;87.30;;;;;;5054007;28;20021;-53
2021/12/04 14:48:29;;;;;;;6.22;2.10;;;21.00;87.20;;;;;;5053945;28;20033;-55
2021/12/04 14:51:07;;;;;;;5.40;2.13;;;21.10;87.20;;;;;;5053932;28;20027;-56
2021/12/04 14:53:38;;;;;;;5.43;2.25;;;21.10;87.10;;;;;;5053729;28;20040;-56
2021/12/04 14:56:39;;;;;;;6.22;2.45;;;21.10;87.10;;;;;;5070060;28;20033;-54
2021/12/04 14:59:15;;;;;;;10.07;2.70;;;21.10;87.00;;;;;;5067933;28;20024;-56
2021/12/04 15:01:43;;;;;;;5.05;2.55;;;21.00;86.80;;;;;;5069495;28;20032;-49
2021/12/04 15:04:10;;;;;;;7.45;3.03;;;21.00;86.80;;;;;;5070719;28;20029;-54
2021/12/04 15:06:39;;;;;;;7.93;2.15;;;21.00;86.80;;;;;;5070178;28;20078;-51
2021/12/04 15:09:14;;;;;;;6.78;2.10;;;21.00;86.70;;;;;;5065936;28;20794;-52
2021/12/04 15:11:51;;;;;;;9.45;2.60;;;21.00;86.60;;;;;;5070945;28;20032;-55
2021/12/04 15:14:31;;;;;;;5.40;1.90;;;21.00;86.60;;;;;;5070332;28;20028;-52
2021/12/04 15:17:10;;;;;;;6.13;2.22;;;21.00;86.60;;;;;;5067858;28;20036;-57
2021/12/04 15:22:09;;;;;;;6.40;2.13;;;21.00;86.50;;;;;;5070535;28;20099;-55
2021/12/04 15:24:42;;;;;;;7.45;2.45;;;21.10;86.60;;;;;;5070694;28;20036;-52
2021/12/04 15:27:15;;;;;;;10.10;2.95;;;21.10;86.50;;;;;;5068687;28;20025;-50
2021/12/04 15:29:47;;;;;;;8.00;2.45;;;21.10;86.50;;;;;;5068895;28;20052;-49
2021/12/04 15:32:19;;;;;;;6.45;2.15;;;21.00;86.40;;;;;;5070552;28;20051;-53
2021/12/04 15:34:58;;;;;;;6.80;2.03;;;21.00;86.40;;;;;;5069741;28;20064;-55
2021/12/04 15:38:02;;;;;;;7.28;2.05;;;21.10;86.20;;;;;;5067205;28;20024;-57
2021/12/04 15:40:48;;;;;;;6.35;2.22;;;21.10;86.20;;;;;;5070390;28;20023;-53
2021/12/04 15:43:28;;;;;;;5.55;2.10;;;21.00;86.00;;;;;;5069977;28;20364;-50
2021/12/04 15:54:33;;;;;;;5.53;2.05;;;21.00;86.00;;;;;;5055558;28;20055;-53
2021/12/04 15:57:00;;;;;;;6.97;2.30;;;21.00;86.00;;;;;;5069856;28;20028;-55
2021/12/04 15:59:32;;;;;;;7.18;2.22;;;21.00;86.00;;;;;;5067243;28;20020;-51
2021/12/04 16:02:09;;;;;;;5.82;2.17;;;20.90;85.90;;;;;;5070196;28;20158;-50
2021/12/04 16:04:37;;;;;;;6.38;2.10;;;20.90;86.00;;;;;;5070260;28;20475;-52
2021/12/04 16:07:05;;;;;;;5.93;2.13;;;20.90;85.90;;;;;;5069094;28;20040;-53
2021/12/04 16:09:35;;;;;;;6.57;1.90;;;20.90;86.00;;;;;;5068914;28;20052;-52
2021/12/04 16:12:07;;;;;;;6.18;2.30;;;20.90;85.90;;;;;;5070123;28;20021;-52
2021/12/04 16:14:38;;;;;;;4.78;1.73;;;20.90;85.90;;;;;;5069721;28;20402;-51
2021/12/04 16:20:30;;;;;;;6.68;2.22;;;20.80;85.90;;;;;;5072143;28;20031;-54